createdAt,value
2017-10-30T00:01:03.660Z,4.80
2017-10-30T00:03:31.882Z,4.90
2017-10-30T00:05:59.453Z,4.80
2017-10-30T00:08:27.011Z,4.90
2017-10-30T00:10:54.462Z,4.90
2017-10-30T00:13:21.944Z,4.90
2017-10-30T00:15:49.474Z,4.80
2017-10-30T00:18:16.973Z,4.80
2017-10-30T00:20:45.174Z,4.80
2017-10-30T00:23:12.658Z,4.70
2017-10-30T00:25:40.142Z,4.70
2017-10-30T00:28:07.572Z,4.80
2017-10-30T00:30:35.129Z,4.80
2017-10-30T00:33:02.686Z,4.70
2017-10-30T00:35:30.130Z,4.70
2017-10-30T00:37:57.568Z,4.60
2017-10-30T00:40:25.021Z,4.60
2017-10-30T00:42:52.500Z,4.70
2017-10-30T00:45:19.963Z,4.80
2017-10-30T00:47:47.513Z,4.80
2017-10-30T00:50:14.945Z,4.70
2017-10-30T00:52:42.402Z,4.70
2017-10-30T00:55:09.833Z,4.70
2017-10-30T00:57:37.276Z,4.70
2017-10-30T01:00:05.521Z,4.80
2017-10-30T01:02:33.939Z,4.70
2017-10-30T01:05:01.577Z,4.50
2017-10-30T01:07:29.047Z,4.70
2017-10-30T01:09:57.277Z,4.60
2017-10-30T01:12:24.725Z,4.60
2017-10-30T01:14:52.171Z,4.70
2017-10-30T01:17:19.611Z,4.50
2017-10-30T01:19:47.058Z,4.60
2017-10-30T01:22:14.500Z,4.50
2017-10-30T01:24:42.705Z,4.50
2017-10-30T01:27:10.182Z,4.40
2017-10-30T01:29:37.643Z,4.40
2017-10-30T01:32:05.073Z,4.40
2017-10-30T01:34:32.518Z,4.50
2017-10-30T01:36:59.953Z,4.50
2017-10-30T01:39:27.460Z,4.50
2017-10-30T01:41:54.901Z,4.50
2017-10-30T01:44:22.356Z,4.50
2017-10-30T01:46:49.802Z,4.50
2017-10-30T01:49:17.246Z,4.40
2017-10-30T01:51:44.732Z,4.20
2017-10-30T01:54:12.182Z,4.20
2017-10-30T01:56:39.633Z,4.30
2017-10-30T01:59:07.081Z,4.40
2017-10-30T02:01:34.557Z,4.40
2017-10-30T02:04:12.172Z,4.30
2017-10-30T02:06:39.602Z,4.30
2017-10-30T02:09:07.056Z,4.30
2017-10-30T02:11:34.500Z,4.30
2017-10-30T02:14:01.947Z,4.20
2017-10-30T02:16:29.393Z,4.30
2017-10-30T02:18:56.883Z,4.30
2017-10-30T02:21:24.416Z,4.30
2017-10-30T02:23:51.903Z,4.20
2017-10-30T02:26:19.352Z,4.30
2017-10-30T02:28:46.792Z,4.40
2017-10-30T02:31:14.225Z,4.30
2017-10-30T02:33:41.721Z,4.40
2017-10-30T02:36:09.165Z,4.30
2017-10-30T02:38:36.606Z,4.30
2017-10-30T02:41:04.045Z,4.40
2017-10-30T02:43:31.565Z,4.30
2017-10-30T02:45:59.042Z,4.20
2017-10-30T02:48:27.269Z,4.30
2017-10-30T02:50:54.832Z,4.20
2017-10-30T02:53:22.327Z,4.30
2017-10-30T02:55:50.545Z,4.20
2017-10-30T02:58:17.999Z,4.20
2017-10-30T03:00:45.572Z,4.20
2017-10-30T03:03:13.021Z,4.30
2017-10-30T03:05:40.473Z,4.30
2017-10-30T03:08:07.917Z,4.30
2017-10-30T03:10:35.352Z,4.30
2017-10-30T03:13:02.853Z,4.40
2017-10-30T03:15:30.285Z,4.50
2017-10-30T03:17:57.756Z,4.60
2017-10-30T03:20:25.213Z,4.50
2017-10-30T03:22:52.661Z,4.50
2017-10-30T03:25:20.116Z,4.40
2017-10-30T03:27:47.570Z,4.40
2017-10-30T03:30:15.062Z,4.40
2017-10-30T03:32:42.502Z,4.60
2017-10-30T03:35:09.941Z,4.60
2017-10-30T03:37:37.407Z,4.70
2017-10-30T03:40:04.845Z,4.60
2017-10-30T03:42:32.317Z,4.60
2017-10-30T03:44:59.765Z,4.70
2017-10-30T03:47:27.214Z,4.80
2017-10-30T03:49:54.687Z,4.80
2017-10-30T03:52:22.132Z,4.80
2017-10-30T03:54:49.569Z,4.80
2017-10-30T03:57:17.037Z,4.90
2017-10-30T03:59:44.478Z,4.80
2017-10-30T04:02:11.966Z,4.80
2017-10-30T04:04:39.408Z,4.90
2017-10-30T04:07:06.848Z,5.00
2017-10-30T04:09:34.320Z,4.90
2017-10-30T04:12:01.773Z,4.90
2017-10-30T04:14:29.233Z,5.00
2017-10-30T04:16:56.689Z,5.00
2017-10-30T04:19:24.133Z,5.10
2017-10-30T04:21:51.576Z,5.10
2017-10-30T04:24:19.057Z,5.10
2017-10-30T04:26:46.496Z,5.10
2017-10-30T04:29:13.964Z,5.10
2017-10-30T04:31:41.424Z,5.10
2017-10-30T04:34:08.869Z,5.10
2017-10-30T04:36:36.333Z,5.20
2017-10-30T04:39:03.931Z,5.20
2017-10-30T04:41:31.470Z,5.20
2017-10-30T04:43:58.912Z,5.30
2017-10-30T04:46:26.350Z,5.20
2017-10-30T04:48:53.804Z,5.20
2017-10-30T04:51:21.249Z,5.20
2017-10-30T04:53:48.729Z,5.40
2017-10-30T04:56:16.186Z,5.30
2017-10-30T04:58:43.627Z,5.30
2017-10-30T05:01:11.109Z,5.20
2017-10-30T05:03:38.628Z,5.30
2017-10-30T05:06:06.113Z,5.10
2017-10-30T05:08:33.672Z,5.10
2017-10-30T05:11:01.114Z,5.20
2017-10-30T05:13:28.578Z,5.20
2017-10-30T05:15:56.166Z,5.10
2017-10-30T05:18:24.422Z,5.10
2017-10-30T05:20:51.966Z,5.10
2017-10-30T05:23:19.413Z,5.20
2017-10-30T05:25:46.881Z,5.30
2017-10-30T05:28:14.338Z,5.30
2017-10-30T05:30:41.889Z,5.20
2017-10-30T05:33:10.346Z,5.10
2017-10-30T05:35:37.772Z,5.10
2017-10-30T05:38:05.992Z,5.20
2017-10-30T05:40:33.441Z,5.10
2017-10-30T05:43:00.904Z,5.10
2017-10-30T05:45:28.361Z,5.20
2017-10-30T05:47:55.804Z,5.20
2017-10-30T05:50:23.276Z,5.20
2017-10-30T05:52:50.718Z,5.40
2017-10-30T05:55:18.149Z,5.40
2017-10-30T05:57:45.640Z,5.30
2017-10-30T06:00:13.082Z,5.30
2017-10-30T06:02:40.545Z,5.20
2017-10-30T06:05:08.032Z,5.10
2017-10-30T06:07:35.486Z,5.10
2017-10-30T06:10:03.024Z,5.20
2017-10-30T06:12:30.581Z,5.50
2017-10-30T06:14:58.017Z,6.80
2017-10-30T06:17:25.530Z,6.60
2017-10-30T06:19:53.770Z,7.30
2017-10-30T06:22:21.250Z,7.30
2017-10-30T06:24:48.681Z,7.80
2017-10-30T06:27:16.125Z,7.40
2017-10-30T06:29:43.580Z,7.50
2017-10-30T06:32:11.031Z,7.40
2017-10-30T06:34:38.469Z,6.80
2017-10-30T06:37:05.901Z,6.10
2017-10-30T06:39:33.340Z,5.80
2017-10-30T06:42:01.577Z,5.50
2017-10-30T06:44:29.037Z,5.50
2017-10-30T06:46:56.797Z,5.60
2017-10-30T06:49:24.228Z,5.60
2017-10-30T06:51:51.669Z,5.40
2017-10-30T06:54:19.114Z,5.50
2017-10-30T06:56:46.619Z,5.60
2017-10-30T06:59:14.072Z,5.60
2017-10-30T07:01:41.524Z,5.60
2017-10-30T07:04:08.985Z,5.60
2017-10-30T07:06:36.432Z,5.70
2017-10-30T07:09:03.976Z,5.70
2017-10-30T07:11:31.442Z,5.80
2017-10-30T07:13:58.921Z,5.70
2017-10-30T07:16:26.371Z,5.80
2017-10-30T07:18:53.816Z,5.80
2017-10-30T07:21:21.260Z,5.80
2017-10-30T07:23:48.740Z,5.70
2017-10-30T07:26:16.291Z,5.80
2017-10-30T07:28:43.733Z,5.90
2017-10-30T07:31:11.166Z,5.90
2017-10-30T07:33:38.617Z,5.90
2017-10-30T07:36:06.105Z,6.10
2017-10-30T07:38:33.565Z,6.10
2017-10-30T07:41:01.010Z,6.10
2017-10-30T07:43:28.478Z,6.10
2017-10-30T07:45:55.949Z,6.20
2017-10-30T07:48:23.380Z,6.00
2017-10-30T07:50:50.840Z,6.40
2017-10-30T07:53:18.285Z,7.00
2017-10-30T07:55:45.749Z,8.10
2017-10-30T07:58:13.207Z,9.10
2017-10-30T08:00:40.708Z,9.20
2017-10-30T08:03:08.917Z,7.70
2017-10-30T08:05:36.361Z,7.60
2017-10-30T08:08:03.793Z,7.90
2017-10-30T08:10:32.015Z,8.30
2017-10-30T08:12:59.477Z,8.30
2017-10-30T08:15:26.925Z,9.10
2017-10-30T08:17:54.389Z,9.60
2017-10-30T08:20:21.950Z,9.90
2017-10-30T08:22:49.381Z,9.90
2017-10-30T08:25:16.837Z,10.10
2017-10-30T08:27:44.353Z,10.30
2017-10-30T08:30:12.585Z,10.50
2017-10-30T08:32:40.033Z,10.50
2017-10-30T08:35:07.489Z,10.10
2017-10-30T08:37:34.926Z,9.90
2017-10-30T08:40:02.378Z,9.70
2017-10-30T08:45:24.020Z,8.90
2017-10-30T08:47:51.521Z,8.60
2017-10-30T08:50:19.052Z,8.40
2017-10-30T08:52:47.447Z,7.90
2017-10-30T08:55:14.901Z,7.80
2017-10-30T08:57:42.342Z,8.00
2017-10-30T09:00:09.778Z,8.10
2017-10-30T09:02:37.290Z,8.20
2017-10-30T09:05:04.867Z,8.20
2017-10-30T09:07:32.460Z,8.00
2017-10-30T09:09:59.886Z,7.70
2017-10-30T09:12:28.097Z,7.80
2017-10-30T09:14:55.577Z,7.80
2017-10-30T09:17:23.021Z,8.00
2017-10-30T09:19:50.458Z,7.90
2017-10-30T09:22:17.945Z,7.90
2017-10-30T09:24:45.453Z,7.90
2017-10-30T09:27:13.030Z,7.70
2017-10-30T09:29:40.517Z,7.50
2017-10-30T09:32:07.961Z,7.20
2017-10-30T09:34:35.437Z,7.30
2017-10-30T09:37:02.954Z,7.50
2017-10-30T09:39:30.393Z,7.60
2017-10-30T09:41:57.837Z,7.50
2017-10-30T09:44:26.118Z,7.60
2017-10-30T09:46:54.331Z,7.80
2017-10-30T09:49:21.767Z,7.70
2017-10-30T09:51:49.283Z,8.00
2017-10-30T09:54:16.882Z,8.10
2017-10-30T09:56:44.321Z,8.00
2017-10-30T09:59:11.753Z,7.90
2017-10-30T10:01:39.965Z,8.00
2017-10-30T10:04:07.497Z,8.00
2017-10-30T10:06:34.967Z,8.10
2017-10-30T10:09:02.481Z,7.90
2017-10-30T10:11:29.949Z,8.00
2017-10-30T10:13:57.396Z,8.90
2017-10-30T10:16:24.833Z,9.90
2017-10-30T10:18:52.276Z,10.30
2017-10-30T10:21:19.726Z,10.40
2017-10-30T10:23:47.608Z,10.10
2017-10-30T10:26:15.114Z,9.90
2017-10-30T10:28:42.559Z,9.60
2017-10-30T10:31:10.067Z,9.50
2017-10-30T10:33:37.530Z,9.40
2017-10-30T10:36:04.977Z,9.10
2017-10-30T10:38:32.468Z,9.10
2017-10-30T10:40:59.999Z,8.80
2017-10-30T10:43:27.517Z,9.00
2017-10-30T10:45:55.028Z,9.40
2017-10-30T10:48:22.536Z,9.90
2017-10-30T10:50:50.048Z,10.00
2017-10-30T10:53:17.486Z,10.60
2017-10-30T10:55:45.009Z,10.70
2017-10-30T10:58:13.398Z,10.40
2017-10-30T11:00:40.905Z,10.30
2017-10-30T11:03:09.223Z,10.40
2017-10-30T11:05:36.681Z,10.40
2017-10-30T11:08:04.162Z,10.20
2017-10-30T11:10:31.740Z,10.20
2017-10-30T11:12:59.277Z,10.60
2017-10-30T11:15:26.750Z,11.50
2017-10-30T11:17:54.198Z,12.20
2017-10-30T11:20:21.661Z,11.20
2017-10-30T11:22:49.862Z,10.60
2017-10-30T11:25:18.074Z,11.30
2017-10-30T11:27:45.582Z,11.20
2017-10-30T11:30:15.216Z,10.60
2017-10-30T11:32:42.657Z,10.60
2017-10-30T11:35:10.233Z,10.30
2017-10-30T11:37:37.948Z,10.20
2017-10-30T11:40:05.405Z,10.20
2017-10-30T11:42:32.837Z,10.00
2017-10-30T11:45:00.403Z,9.60
2017-10-30T11:47:27.921Z,9.30
2017-10-30T11:49:55.369Z,9.20
2017-10-30T11:52:22.866Z,9.10
2017-10-30T11:54:50.350Z,8.80
2017-10-30T11:57:18.564Z,8.70
2017-10-30T11:59:46.013Z,8.60
2017-10-30T12:02:13.497Z,8.80
2017-10-30T12:04:41.052Z,8.60
2017-10-30T12:07:08.686Z,8.50
2017-10-30T12:09:36.116Z,8.50
2017-10-30T12:12:04.375Z,8.70
2017-10-30T12:14:31.897Z,8.70
2017-10-30T12:16:59.455Z,8.70
2017-10-30T12:19:26.896Z,8.70
2017-10-30T12:21:54.371Z,8.50
2017-10-30T12:24:21.826Z,8.60
2017-10-30T12:26:49.300Z,8.70
2017-10-30T12:29:17.030Z,8.50
2017-10-30T12:31:44.505Z,8.50
2017-10-30T12:34:11.941Z,8.50
2017-10-30T12:36:39.397Z,8.50
2017-10-30T12:39:06.897Z,8.50
2017-10-30T12:41:35.145Z,8.40
2017-10-30T12:44:02.585Z,8.40
2017-10-30T12:46:30.040Z,8.30
2017-10-30T12:48:57.477Z,8.20
2017-10-30T12:51:24.960Z,8.30
2017-10-30T12:53:52.408Z,8.40
2017-10-30T12:56:19.843Z,8.40
2017-10-30T12:58:47.281Z,8.40
2017-10-30T13:01:14.783Z,8.70
2017-10-30T13:03:42.319Z,8.80
2017-10-30T13:06:09.793Z,8.80
2017-10-30T13:08:37.353Z,8.80
2017-10-30T13:11:05.788Z,8.80
2017-10-30T13:13:33.993Z,8.40
2017-10-30T13:16:01.473Z,8.40
2017-10-30T13:18:28.909Z,8.40
2017-10-30T13:20:56.370Z,8.20
2017-10-30T13:23:23.835Z,8.20
2017-10-30T13:25:51.274Z,8.20
2017-10-30T13:28:19.186Z,8.00
2017-10-30T13:30:46.684Z,7.90
2017-10-30T13:33:14.135Z,8.00
2017-10-30T13:35:41.804Z,7.90
2017-10-30T13:38:09.261Z,7.80
2017-10-30T13:40:36.702Z,7.70
2017-10-30T13:43:04.146Z,7.90
2017-10-30T13:45:31.593Z,8.00
2017-10-30T13:47:59.039Z,7.90
2017-10-30T13:50:37.406Z,8.00
2017-10-30T13:53:04.886Z,7.90
2017-10-30T13:55:32.381Z,8.00
2017-10-30T13:57:59.907Z,7.90
2017-10-30T14:00:27.336Z,7.90
2017-10-30T14:02:54.837Z,8.00
2017-10-30T14:05:23.039Z,8.20
2017-10-30T14:07:50.530Z,8.10
2017-10-30T14:10:17.961Z,8.20
2017-10-30T14:12:45.533Z,8.30
2017-10-30T14:15:13.081Z,8.30
2017-10-30T14:17:40.618Z,8.20
2017-10-30T14:20:08.049Z,8.10
2017-10-30T14:22:35.561Z,8.20
2017-10-30T14:25:03.010Z,8.00
2017-10-30T14:27:30.484Z,8.10
2017-10-30T14:29:57.936Z,7.90
2017-10-30T14:32:25.377Z,7.90
2017-10-30T14:34:52.821Z,7.80
2017-10-30T14:37:20.277Z,7.90
2017-10-30T14:39:47.701Z,7.90
2017-10-30T14:42:15.249Z,8.10
2017-10-30T14:44:43.465Z,8.00
2017-10-30T14:47:11.670Z,8.00
2017-10-30T14:49:39.113Z,8.00
2017-10-30T14:52:06.657Z,8.00
2017-10-30T14:54:34.114Z,7.90
2017-10-30T14:57:01.574Z,7.80
2017-10-30T14:59:29.125Z,8.00
2017-10-30T15:01:56.581Z,8.00
2017-10-30T15:04:24.025Z,7.80
2017-10-30T15:06:51.475Z,7.80
2017-10-30T15:09:18.918Z,7.70
2017-10-30T15:11:46.344Z,7.70
2017-10-30T15:14:14.552Z,7.60
2017-10-30T15:16:42.005Z,7.50
2017-10-30T15:19:09.567Z,7.60
2017-10-30T15:21:37.046Z,7.60
2017-10-30T15:24:04.501Z,7.70
2017-10-30T15:26:31.945Z,7.60
2017-10-30T15:28:59.388Z,7.70
2017-10-30T15:31:26.866Z,7.80
2017-10-30T15:33:54.317Z,7.60
2017-10-30T15:36:21.781Z,7.60
2017-10-30T15:38:49.228Z,7.60
2017-10-30T15:41:16.689Z,7.60
2017-10-30T15:43:44.221Z,7.50
2017-10-30T15:46:11.689Z,7.50
2017-10-30T15:48:39.161Z,7.50
2017-10-30T15:51:06.733Z,7.50
2017-10-30T15:53:34.285Z,7.50
2017-10-30T15:56:01.740Z,7.60
2017-10-30T15:58:29.169Z,7.50
2017-10-30T16:00:56.681Z,7.60
2017-10-30T16:03:24.886Z,7.70
2017-10-30T16:05:52.369Z,7.70
2017-10-30T16:08:19.803Z,7.60
2017-10-30T16:10:47.271Z,7.50
2017-10-30T16:13:14.761Z,7.50
2017-10-30T16:15:42.347Z,7.50
2017-10-30T16:18:09.847Z,7.50
2017-10-30T16:20:37.282Z,7.40
2017-10-30T16:23:04.733Z,7.40
2017-10-30T16:25:32.169Z,7.30
2017-10-30T16:27:59.796Z,7.30
2017-10-30T16:30:28.021Z,7.30
2017-10-30T16:32:56.734Z,7.20
2017-10-30T16:35:24.197Z,7.30
2017-10-30T16:37:51.746Z,7.30
2017-10-30T16:40:19.201Z,7.30
2017-10-30T16:42:46.649Z,7.20
2017-10-30T16:45:14.186Z,7.30
2017-10-30T16:47:41.672Z,7.30
2017-10-30T16:50:09.113Z,7.20
2017-10-30T16:52:36.567Z,7.20
2017-10-30T16:55:04.028Z,7.20
2017-10-30T16:57:31.522Z,7.30
2017-10-30T16:59:58.963Z,7.20
2017-10-30T17:02:26.505Z,7.20
2017-10-30T17:04:54.562Z,7.10
2017-10-30T17:07:22.014Z,7.10
2017-10-30T17:09:49.476Z,7.00
2017-10-30T17:12:16.925Z,7.10
2017-10-30T17:14:44.394Z,7.10
2017-10-30T17:17:11.978Z,7.30
2017-10-30T17:19:39.436Z,7.20
2017-10-30T17:22:06.960Z,7.30
2017-10-30T17:24:34.469Z,7.30
2017-10-30T17:27:02.693Z,7.10
2017-10-30T17:29:30.149Z,7.00
2017-10-30T17:31:57.589Z,7.10
2017-10-30T17:34:25.033Z,7.10
2017-10-30T17:36:52.472Z,6.90
2017-10-30T17:39:20.890Z,7.00
2017-10-30T17:41:48.338Z,7.10
2017-10-30T17:44:15.792Z,7.10
2017-10-30T17:46:43.237Z,7.20
2017-10-30T17:49:10.689Z,7.10
2017-10-30T17:51:38.161Z,7.10
2017-10-30T17:54:05.600Z,7.00
2017-10-30T17:56:33.046Z,7.00
2017-10-30T17:59:00.556Z,6.90
2017-10-30T18:01:28.787Z,7.10
2017-10-30T18:03:56.257Z,7.00
2017-10-30T18:06:23.698Z,7.10
2017-10-30T18:08:51.845Z,7.20
2017-10-30T18:11:19.281Z,7.20
2017-10-30T18:13:46.830Z,7.10
2017-10-30T18:16:14.365Z,7.20
2017-10-30T18:18:41.818Z,7.10
2017-10-30T18:21:09.320Z,7.10
2017-10-30T18:23:37.529Z,7.10
2017-10-30T18:26:04.977Z,7.00
2017-10-30T18:28:32.453Z,7.10
2017-10-30T18:30:59.903Z,7.20
2017-10-30T18:33:27.369Z,7.10
2017-10-30T18:35:54.809Z,7.00
2017-10-30T18:38:22.283Z,7.00
2017-10-30T18:40:49.841Z,7.10
2017-10-30T18:43:17.281Z,7.00
2017-10-30T18:45:44.753Z,7.00
2017-10-30T18:48:12.236Z,7.10
2017-10-30T18:50:39.734Z,7.10
2017-10-30T18:53:07.329Z,7.10
2017-10-30T18:55:34.772Z,7.00
2017-10-30T18:58:02.216Z,7.10
2017-10-30T19:00:29.680Z,6.80
2017-10-30T19:02:57.154Z,6.90
2017-10-30T19:05:24.778Z,7.00
2017-10-30T19:07:52.218Z,7.00
2017-10-30T19:10:19.712Z,7.00
2017-10-30T19:12:47.153Z,6.80
2017-10-30T19:15:14.637Z,6.80
2017-10-30T19:17:42.079Z,6.90
2017-10-30T19:20:09.533Z,7.00
2017-10-30T19:22:37.093Z,7.10
2017-10-30T19:25:04.586Z,6.90
2017-10-30T19:27:32.847Z,6.70
2017-10-30T19:30:01.789Z,6.70
2017-10-30T19:32:29.245Z,6.70
2017-10-30T19:34:56.732Z,6.70
2017-10-30T19:37:24.290Z,6.60
2017-10-30T19:39:51.849Z,6.50
2017-10-30T19:42:19.402Z,6.50
2017-10-30T19:44:46.857Z,6.50
2017-10-30T19:47:14.421Z,6.50
2017-10-30T19:49:41.882Z,6.60
2017-10-30T19:52:09.321Z,6.50
2017-10-30T19:54:36.785Z,6.50
2017-10-30T19:57:04.273Z,6.50
2017-10-30T19:59:32.480Z,6.50
2017-10-30T20:01:59.931Z,6.40
2017-10-30T20:04:27.360Z,6.50
2017-10-30T20:07:01.333Z,6.50
2017-10-30T20:09:34.361Z,6.40
2017-10-30T20:12:07.574Z,6.40
2017-10-30T20:14:34.998Z,6.40
2017-10-30T20:17:03.247Z,6.30
2017-10-30T20:19:30.803Z,6.20
2017-10-30T20:21:58.349Z,6.20
2017-10-30T20:24:25.801Z,6.20
2017-10-30T20:26:53.243Z,6.30
2017-10-30T20:29:20.695Z,6.30
2017-10-30T20:31:48.209Z,6.30
2017-10-30T20:34:16.496Z,6.30
2017-10-30T20:36:44.822Z,6.30
2017-10-30T20:39:12.319Z,6.30
2017-10-30T20:41:40.616Z,6.40
2017-10-30T20:44:08.116Z,6.30
2017-10-30T20:46:35.631Z,6.30
2017-10-30T20:49:03.234Z,6.30
2017-10-30T20:51:30.701Z,6.40
2017-10-30T20:53:58.233Z,6.40
2017-10-30T20:56:25.693Z,6.40
2017-10-30T20:58:53.265Z,6.40
2017-10-30T21:01:20.751Z,6.40
2017-10-30T21:03:49.009Z,6.40
2017-10-30T21:06:16.521Z,6.30
2017-10-30T21:08:44.034Z,6.40
2017-10-30T21:11:12.266Z,6.40
2017-10-30T21:13:39.849Z,6.30
2017-10-30T21:16:07.280Z,6.40
2017-10-30T21:18:34.798Z,6.40
2017-10-30T21:21:02.314Z,6.40
2017-10-30T21:23:29.808Z,6.40
2017-10-30T21:25:58.052Z,6.40
2017-10-30T21:28:25.579Z,6.30
2017-10-30T21:30:53.090Z,6.40
2017-10-30T21:33:20.589Z,6.40
2017-10-30T21:35:48.036Z,6.40
2017-10-30T21:38:15.578Z,6.40
2017-10-30T21:40:43.091Z,6.40
2017-10-30T21:43:11.478Z,6.30
2017-10-30T21:45:38.965Z,6.30
2017-10-30T21:48:06.492Z,6.20
2017-10-30T21:50:35.129Z,6.10
2017-10-30T21:53:02.667Z,6.10
2017-10-30T21:55:30.235Z,6.20
2017-10-30T21:57:57.739Z,6.20
2017-10-30T22:00:25.253Z,6.10
2017-10-30T22:02:53.541Z,6.10
2017-10-30T22:05:21.174Z,6.00
2017-10-30T22:07:48.674Z,6.00
2017-10-30T22:10:16.189Z,6.00
2017-10-30T22:12:43.745Z,6.00
2017-10-30T22:15:11.239Z,5.90
2017-10-30T22:18:00.244Z,5.90
2017-10-30T22:20:28.570Z,5.90
2017-10-30T22:22:56.632Z,5.80
2017-10-30T22:25:24.397Z,5.90
2017-10-30T22:27:51.926Z,5.90
2017-10-30T22:30:19.596Z,5.80
2017-10-30T22:32:47.064Z,5.70
2017-10-30T22:35:14.525Z,5.70
2017-10-30T22:37:41.968Z,5.70
2017-10-30T22:40:09.405Z,5.70
2017-10-30T22:42:36.854Z,5.60
2017-10-30T22:45:04.345Z,5.60
2017-10-30T22:47:31.793Z,5.50
2017-10-30T22:49:59.921Z,5.40
2017-10-30T22:52:28.249Z,5.40
2017-10-30T22:54:55.693Z,5.30
2017-10-30T22:57:23.162Z,5.30
2017-10-30T22:59:50.600Z,5.20
2017-10-30T23:02:18.074Z,5.20
2017-10-30T23:04:45.513Z,5.10
2017-10-30T23:07:12.973Z,5.00
2017-10-30T23:09:40.413Z,4.90
2017-10-30T23:12:07.893Z,4.80
2017-10-30T23:14:35.348Z,4.80
2017-10-30T23:17:02.825Z,4.80
2017-10-30T23:19:30.361Z,4.80
2017-10-30T23:21:57.805Z,4.70
2017-10-30T23:24:25.249Z,4.70
2017-10-30T23:26:52.803Z,4.70
2017-10-30T23:29:20.231Z,4.60
2017-10-30T23:31:48.429Z,4.50
2017-10-30T23:34:15.872Z,4.50
2017-10-30T23:36:43.364Z,4.50
2017-10-30T23:39:10.842Z,4.50
2017-10-30T23:41:38.277Z,4.50
2017-10-30T23:44:05.809Z,4.40
2017-10-30T23:46:33.237Z,4.40
2017-10-30T23:49:01.473Z,4.30
2017-10-30T23:51:28.904Z,4.30
2017-10-30T23:53:56.393Z,4.20
2017-10-30T23:56:24.650Z,4.10
2017-10-30T23:58:52.210Z,4.00
